Time;durP1;ratioP1;P1;durP2;ratioP2;P2;SDS_P1;SDS_P2;PMS_P1;PMS_P2;Temp;Humidity;BMP_temperature;BMP_pressure;BME280_temperature;BME280_humidity;BME280_pressure;Samples;Min_cycle;Max_cycle;Signal;HPM_P1;HPM_P2
2024/02/29 00:00:11;;;;;;;14.02;8.68;;;;;;;;;;4996238;28;20060;-91
2024/02/29 00:02:37;;;;;;;14.75;8.35;;;;;;;;;;4993034;28;20472;-91
2024/02/29 00:05:04;;;;;;;15.40;9.07;;;;;;;;;;5017656;28;20040;-90
2024/02/29 00:07:29;;;;;;;12.88;8.13;;;;;;;;;;4989528;28;20118;-90
2024/02/29 00:09:55;;;;;;;13.55;8.07;;;;;;;;;;5012884;28;20089;-91
2024/02/29 00:12:20;;;;;;;13.35;8.18;;;;;;;;;;4984678;28;20025;-90
2024/02/29 00:14:45;;;;;;;13.93;7.90;;;;;;;;;;4985588;28;20026;-90
2024/02/29 00:17:11;;;;;;;16.48;7.97;;;;;;;;;;5002332;28;20397;-90
2024/02/29 00:19:36;;;;;;;12.68;8.27;;;;;;;;;;4983355;28;20365;-91
2024/02/29 00:22:02;;;;;;;14.57;8.43;;;;;;;;;;4991755;28;20105;-91
2024/02/29 00:24:28;;;;;;;13.27;7.80;;;;;;;;;;4999831;28;20022;-90
2024/02/29 00:26:53;;;;;;;16.25;7.85;;;;;;;;;;4987898;28;20030;-91
2024/02/29 00:29:19;;;;;;;11.90;7.43;;;;;;;;;;4983756;28;20391;-90
2024/02/29 00:31:45;;;;;;;13.02;7.70;;;;;;;;;;4988915;28;20041;-90
2024/02/29 00:34:12;;;;;;;13.38;7.15;;;;;;;;;;4991511;28;20029;-90
2024/02/29 00:36:37;;;;;;;11.93;7.03;;;;;;;;;;4984879;28;20053;-83
2024/02/29 00:39:03;;;;;;;12.80;7.55;;;;;;;;;;4999512;28;20467;-83
2024/02/29 00:41:29;;;;;;;10.00;6.40;;;;;;;;;;5004380;28;20041;-84
2024/02/29 00:43:54;;;;;;;13.05;7.53;;;;;;;;;;5002661;28;20361;-83
2024/02/29 00:46:20;;;;;;;14.95;7.65;;;;;;;;;;4993259;28;20442;-83
2024/02/29 00:48:45;;;;;;;12.27;7.20;;;;;;;;;;5001474;28;20037;-83
2024/02/29 00:51:11;;;;;;;14.93;7.30;;;;;;;;;;5004867;28;20036;-84
2024/02/29 00:53:36;;;;;;;12.48;7.30;;;;;;;;;;4996814;28;20030;-83
2024/02/29 00:56:01;;;;;;;14.05;6.97;;;;;;;;;;4986154;28;20113;-84
2024/02/29 00:58:27;;;;;;;13.30;7.03;;;;;;;;;;5006736;28;20129;-83
2024/02/29 01:00:54;;;;;;;11.38;6.60;;;;;;;;;;5004594;28;20525;-83
2024/02/29 01:03:19;;;;;;;12.38;6.95;;;;;;;;;;5013249;28;20049;-83
2024/02/29 01:05:45;;;;;;;13.18;6.82;;;;;;;;;;5007991;28;20403;-83
2024/02/29 01:08:10;;;;;;;12.70;6.75;;;;;;;;;;5012523;28;20053;-83
2024/02/29 01:10:36;;;;;;;14.20;7.30;;;;;;;;;;5001618;28;20046;-83
2024/02/29 01:13:01;;;;;;;11.40;6.88;;;;;;;;;;5008876;28;20048;-83
2024/02/29 01:15:27;;;;;;;12.98;6.53;;;;;;;;;;5007260;28;20037;-83
2024/02/29 01:17:52;;;;;;;12.18;6.40;;;;;;;;;;5002490;28;20815;-84
2024/02/29 01:20:18;;;;;;;12.93;6.63;;;;;;;;;;4991685;28;20033;-84
2024/02/29 01:22:45;;;;;;;10.73;6.43;;;;;;;;;;4993269;28;20412;-83
2024/02/29 01:25:11;;;;;;;13.38;7.60;;;;;;;;;;5004518;28;20061;-83
2024/02/29 01:27:36;;;;;;;13.20;7.40;;;;;;;;;;4990611;28;20069;-83
2024/02/29 01:30:03;;;;;;;13.27;6.53;;;;;;;;;;5007595;28;20021;-83
2024/02/29 01:32:28;;;;;;;10.75;6.57;;;;;;;;;;4988032;28;20037;-84
2024/02/29 01:34:54;;;;;;;13.90;7.20;;;;;;;;;;5009823;28;20391;-83
2024/02/29 01:37:19;;;;;;;12.15;7.15;;;;;;;;;;5007163;28;20030;-83
2024/02/29 01:39:44;;;;;;;12.10;6.78;;;;;;;;;;5001039;28;20376;-83
2024/02/29 01:42:11;;;;;;;12.57;7.10;;;;;;;;;;5001615;28;20344;-83
2024/02/29 01:44:59;;;;;;;13.05;7.07;;;;;;;;;;5000266;28;20499;-84
2024/02/29 01:47:26;;;;;;;13.80;6.75;;;;;;;;;;5004341;28;20479;-84
2024/02/29 01:49:58;;;;;;;15.30;7.57;;;;;;;;;;5009083;28;20034;-84
2024/02/29 01:52:28;;;;;;;12.65;6.45;;;;;;;;;;5005139;28;20041;-84
2024/02/29 01:54:53;;;;;;;12.93;6.82;;;;;;;;;;5011324;28;20026;-84
2024/02/29 01:57:18;;;;;;;11.43;6.65;;;;;;;;;;4987715;28;20022;-83
2024/02/29 01:59:45;;;;;;;15.32;7.35;;;;;;;;;;4989666;28;20381;-84
2024/02/29 02:02:11;;;;;;;13.98;7.70;;;;;;;;;;4996379;28;20029;-90
2024/02/29 02:04:36;;;;;;;13.43;6.95;;;;;;;;;;5001572;23;20046;-83
2024/02/29 02:07:03;;;;;;;14.35;7.30;;;;;;;;;;5003229;28;20378;-82
2024/02/29 02:09:29;;;;;;;13.65;7.65;;;;;;;;;;5007740;28;20045;-82
2024/02/29 02:11:54;;;;;;;12.82;7.00;;;;;;;;;;5007980;28;20062;-82
2024/02/29 02:14:19;;;;;;;13.05;6.57;;;;;;;;;;4991337;28;20494;-82
2024/02/29 02:16:45;;;;;;;13.48;7.22;;;;;;;;;;5009380;28;20444;-82
2024/02/29 02:19:12;;;;;;;13.45;7.03;;;;;;;;;;5007999;28;20496;-82
2024/02/29 02:21:37;;;;;;;16.98;7.40;;;;;;;;;;4993312;28;20026;-81
2024/02/29 02:24:03;;;;;;;13.48;7.13;;;;;;;;;;5007442;28;20026;-82
2024/02/29 02:26:28;;;;;;;12.10;7.32;;;;;;;;;;5004505;28;20091;-82
2024/02/29 02:28:54;;;;;;;12.65;7.18;;;;;;;;;;5006591;28;20033;-82
2024/02/29 02:31:19;;;;;;;14.27;7.72;;;;;;;;;;4992026;28;20027;-82
2024/02/29 02:33:44;;;;;;;12.50;7.63;;;;;;;;;;5006235;28;20053;-83
2024/02/29 02:36:10;;;;;;;15.48;7.70;;;;;;;;;;5005710;28;20458;-81
2024/02/29 02:38:35;;;;;;;14.68;7.82;;;;;;;;;;4995440;28;20030;-81
2024/02/29 02:41:00;;;;;;;12.98;7.75;;;;;;;;;;5006455;28;20034;-81
2024/02/29 02:43:26;;;;;;;15.68;8.73;;;;;;;;;;5007204;28;20116;-82
2024/02/29 02:45:51;;;;;;;13.98;7.95;;;;;;;;;;5003884;28;20109;-81
2024/02/29 02:48:17;;;;;;;14.45;7.60;;;;;;;;;;5006726;28;20456;-81
2024/02/29 02:50:42;;;;;;;15.85;8.13;;;;;;;;;;4987016;28;20380;-82
2024/02/29 02:53:07;;;;;;;15.80;7.57;;;;;;;;;;4972133;28;20465;-82
2024/02/29 02:55:33;;;;;;;15.00;7.72;;;;;;;;;;4983379;28;20092;-82
2024/02/29 02:57:58;;;;;;;19.38;8.73;;;;;;;;;;4985229;28;20116;-82
2024/02/29 03:00:24;;;;;;;15.73;8.82;;;;;;;;;;4982400;28;20039;-82
2024/02/29 03:02:50;;;;;;;14.63;7.88;;;;;;;;;;4990459;28;20076;-82
2024/02/29 03:05:15;;;;;;;15.05;8.40;;;;;;;;;;4990646;28;20499;-83
2024/02/29 03:07:41;;;;;;;14.43;7.65;;;;;;;;;;4990509;28;20049;-82
2024/02/29 03:10:08;;;;;;;14.48;8.35;;;;;;;;;;4986171;28;20065;-82
2024/02/29 03:12:34;;;;;;;16.48;8.48;;;;;;;;;;4986258;28;20473;-82
2024/02/29 03:15:00;;;;;;;16.77;8.45;;;;;;;;;;4968515;28;20034;-79
2024/02/29 03:17:26;;;;;;;17.00;8.80;;;;;;;;;;4987036;28;20412;-79
2024/02/29 03:19:51;;;;;;;14.43;8.02;;;;;;;;;;4972221;28;20056;-79
2024/02/29 03:22:16;;;;;;;15.98;8.85;;;;;;;;;;4989099;28;20022;-77
2024/02/29 03:24:43;;;;;;;17.23;8.98;;;;;;;;;;4987361;28;20035;-79
2024/02/29 03:27:09;;;;;;;17.23;9.35;;;;;;;;;;4988738;28;20034;-77
2024/02/29 03:29:35;;;;;;;19.25;8.85;;;;;;;;;;4971982;28;20057;-78
2024/02/29 03:32:00;;;;;;;15.43;8.48;;;;;;;;;;4991169;28;20468;-77
2024/02/29 03:34:26;;;;;;;16.33;8.75;;;;;;;;;;4986017;28;20081;-77
2024/02/29 03:36:51;;;;;;;16.27;8.45;;;;;;;;;;4990911;28;20053;-76
2024/02/29 03:39:17;;;;;;;15.55;8.88;;;;;;;;;;4975031;28;20369;-77
2024/02/29 03:41:42;;;;;;;15.75;8.70;;;;;;;;;;4986974;28;20477;-78
2024/02/29 03:44:07;;;;;;;18.15;9.23;;;;;;;;;;4972906;28;20028;-78
2024/02/29 03:46:32;;;;;;;21.90;9.10;;;;;;;;;;4987738;28;20026;-79
2024/02/29 03:48:58;;;;;;;14.52;8.18;;;;;;;;;;4988666;28;20385;-79
2024/02/29 03:51:24;;;;;;;18.05;9.23;;;;;;;;;;4983900;28;20022;-77
2024/02/29 03:53:50;;;;;;;18.67;8.90;;;;;;;;;;4983872;28;20080;-76
2024/02/29 03:56:15;;;;;;;15.25;8.32;;;;;;;;;;4969546;28;20467;-77
2024/02/29 03:58:40;;;;;;;18.23;9.00;;;;;;;;;;4984274;28;20065;-79
2024/02/29 04:01:10;;;;;;;16.85;8.40;;;;;;;;;;4985792;28;20432;-78
2024/02/29 04:03:39;;;;;;;17.52;9.35;;;;;;;;;;4986800;28;20027;-79
2024/02/29 04:06:05;;;;;;;18.30;9.68;;;;;;;;;;4969900;28;20026;-78
2024/02/29 04:08:30;;;;;;;17.63;8.95;;;;;;;;;;4984869;28;20095;-79
2024/02/29 04:10:56;;;;;;;16.23;9.20;;;;;;;;;;4988765;28;20499;-78
2024/02/29 04:13:22;;;;;;;14.38;8.25;;;;;;;;;;4988959;28;20472;-78
2024/02/29 04:15:49;;;;;;;15.70;8.77;;;;;;;;;;4990685;28;20057;-76
2024/02/29 04:18:14;;;;;;;15.18;8.80;;;;;;;;;;4983390;28;20033;-79
2024/02/29 04:20:40;;;;;;;16.90;9.20;;;;;;;;;;4972397;28;20511;-78
2024/02/29 04:23:05;;;;;;;17.08;8.55;;;;;;;;;;4990561;28;20029;-78
2024/02/29 04:25:30;;;;;;;14.70;8.20;;;;;;;;;;4990223;28;21102;-79
2024/02/29 04:27:57;;;;;;;17.05;8.95;;;;;;;;;;4985933;28;20077;-78
2024/02/29 04:30:23;;;;;;;16.38;8.90;;;;;;;;;;4980981;28;20030;-79
2024/02/29 04:32:48;;;;;;;16.67;8.55;;;;;;;;;;4986403;28;20403;-78
2024/02/29 04:35:14;;;;;;;15.32;8.07;;;;;;;;;;4989995;28;20026;-79
2024/02/29 04:37:39;;;;;;;14.75;7.93;;;;;;;;;;4992625;28;20026;-79
2024/02/29 04:40:07;;;;;;;14.13;7.90;;;;;;;;;;4991355;28;20033;-78
2024/02/29 04:42:32;;;;;;;15.05;8.52;;;;;;;;;;4978332;28;20041;-79
2024/02/29 04:44:57;;;;;;;13.80;8.30;;;;;;;;;;4988734;28;20124;-78
2024/02/29 04:47:24;;;;;;;15.55;9.02;;;;;;;;;;4993564;28;20427;-78
2024/02/29 04:49:49;;;;;;;15.15;8.73;;;;;;;;;;4994477;28;20026;-79
2024/02/29 04:52:14;;;;;;;14.52;8.10;;;;;;;;;;4991704;28;20507;-78
2024/02/29 04:54:40;;;;;;;13.63;7.45;;;;;;;;;;4967626;28;20026;-78
2024/02/29 04:57:06;;;;;;;14.45;8.32;;;;;;;;;;4987999;28;20101;-78
2024/02/29 04:59:31;;;;;;;14.23;8.27;;;;;;;;;;4986028;28;20049;-78
2024/02/29 05:01:57;;;;;;;17.10;8.35;;;;;;;;;;4977174;28;20030;-78
2024/02/29 05:04:23;;;;;;;14.45;8.32;;;;;;;;;;4993047;28;20030;-78
2024/02/29 05:06:48;;;;;;;13.93;8.38;;;;;;;;;;4991318;28;20811;-78
2024/02/29 05:09:14;;;;;;;12.80;8.00;;;;;;;;;;4989841;28;20388;-78
2024/02/29 05:11:39;;;;;;;13.57;7.22;;;;;;;;;;4980552;28;20026;-78
2024/02/29 05:14:05;;;;;;;15.93;7.35;;;;;;;;;;4991685;28;20031;-78
2024/02/29 05:16:31;;;;;;;14.75;8.32;;;;;;;;;;4970057;28;20208;-78
2024/02/29 05:18:56;;;;;;;15.10;8.05;;;;;;;;;;4973601;28;20036;-78
2024/02/29 05:21:21;;;;;;;14.45;7.90;;;;;;;;;;4981210;28;20117;-78
2024/02/29 05:23:47;;;;;;;14.57;7.93;;;;;;;;;;4986159;28;20058;-79
2024/02/29 05:26:12;;;;;;;14.13;8.48;;;;;;;;;;4989237;28;20027;-76
2024/02/29 05:28:38;;;;;;;14.52;8.20;;;;;;;;;;4972899;28;20567;-78
2024/02/29 05:31:04;;;;;;;12.32;7.85;;;;;;;;;;4991214;28;20019;-78
2024/02/29 05:33:29;;;;;;;12.82;7.95;;;;;;;;;;4989066;28;20447;-78
2024/02/29 05:35:54;;;;;;;17.50;8.02;;;;;;;;;;4993482;28;20054;-83
2024/02/29 05:38:20;;;;;;;13.82;8.13;;;;;;;;;;4988092;28;20050;-83
2024/02/29 05:40:47;;;;;;;14.07;7.63;;;;;;;;;;4976579;28;20077;-83
2024/02/29 05:43:14;;;;;;;13.88;7.68;;;;;;;;;;4975461;28;20495;-83
2024/02/29 05:45:40;;;;;;;13.88;8.35;;;;;;;;;;4991021;28;20112;-83
2024/02/29 05:48:06;;;;;;;13.02;7.72;;;;;;;;;;4983758;28;20033;-82
2024/02/29 05:50:31;;;;;;;13.15;8.00;;;;;;;;;;4975775;28;20022;-83
2024/02/29 05:52:58;;;;;;;13.05;7.75;;;;;;;;;;4987893;28;20077;-83
2024/02/29 05:55:23;;;;;;;12.15;7.78;;;;;;;;;;4990649;28;20030;-83
2024/02/29 05:57:49;;;;;;;15.73;8.35;;;;;;;;;;4987001;28;21771;-82
2024/02/29 06:00:14;;;;;;;14.30;7.45;;;;;;;;;;4991466;28;20026;-83
2024/02/29 06:02:40;;;;;;;16.58;8.52;;;;;;;;;;4986867;28;20019;-82
2024/02/29 06:05:07;;;;;;;15.27;7.22;;;;;;;;;;4975128;28;20427;-83
2024/02/29 06:07:34;;;;;;;14.88;7.55;;;;;;;;;;4984806;28;20030;-83
2024/02/29 06:09:59;;;;;;;13.90;7.05;;;;;;;;;;4974973;28;20388;-81
2024/02/29 06:12:24;;;;;;;13.68;8.18;;;;;;;;;;4987458;28;20027;-84
2024/02/29 06:14:50;;;;;;;15.10;7.60;;;;;;;;;;4961834;28;20537;-83
2024/02/29 06:17:16;;;;;;;16.95;7.75;;;;;;;;;;4988399;28;20564;-81
2024/02/29 06:19:41;;;;;;;13.25;7.50;;;;;;;;;;4984736;28;20066;-81
2024/02/29 06:22:07;;;;;;;13.43;8.02;;;;;;;;;;4969538;28;20030;-82
2024/02/29 06:24:33;;;;;;;13.82;7.50;;;;;;;;;;4986547;28;20379;-81
2024/02/29 06:26:58;;;;;;;13.27;7.70;;;;;;;;;;4989727;28;22287;-82
2024/02/29 06:29:24;;;;;;;13.73;7.10;;;;;;;;;;4986331;28;20419;-82
2024/02/29 06:31:49;;;;;;;13.85;7.80;;;;;;;;;;4987341;28;20033;-82
2024/02/29 06:34:14;;;;;;;14.18;7.68;;;;;;;;;;4989888;28;20022;-82
2024/02/29 06:36:40;;;;;;;13.90;7.45;;;;;;;;;;4991548;28;20045;-82
2024/02/29 06:39:07;;;;;;;14.82;8.07;;;;;;;;;;4984748;28;20022;-82
2024/02/29 06:41:38;;;;;;;13.23;7.35;;;;;;;;;;4992125;28;20053;-82
2024/02/29 06:44:06;;;;;;;12.90;7.18;;;;;;;;;;4983263;28;20026;-82
2024/02/29 06:46:32;;;;;;;13.02;7.68;;;;;;;;;;4982740;28;20034;-77
2024/02/29 06:48:58;;;;;;;13.38;7.65;;;;;;;;;;4988608;28;20030;-77
2024/02/29 06:51:23;;;;;;;15.68;7.20;;;;;;;;;;4971077;28;20045;-77
2024/02/29 06:53:49;;;;;;;14.73;7.25;;;;;;;;;;4991888;28;20105;-77
2024/02/29 06:56:14;;;;;;;15.52;7.65;;;;;;;;;;4991057;28;20030;-77
2024/02/29 06:58:42;;;;;;;15.77;7.47;;;;;;;;;;4981152;28;20054;-77
2024/02/29 07:01:08;;;;;;;13.40;7.72;;;;;;;;;;4984225;28;20503;-77
2024/02/29 07:03:33;;;;;;;13.02;7.18;;;;;;;;;;4986503;28;20046;-77
2024/02/29 07:05:59;;;;;;;15.82;7.78;;;;;;;;;;4989915;28;20038;-78
2024/02/29 07:08:24;;;;;;;15.43;7.85;;;;;;;;;;4974869;28;20034;-77
2024/02/29 07:10:49;;;;;;;14.70;7.35;;;;;;;;;;4971527;28;20037;-77
2024/02/29 07:13:14;;;;;;;14.23;7.38;;;;;;;;;;4991606;28;20436;-77
2024/02/29 07:15:40;;;;;;;13.98;7.68;;;;;;;;;;4989444;28;20168;-77
2024/02/29 07:18:06;;;;;;;11.73;6.63;;;;;;;;;;4987663;28;20026;-77
2024/02/29 07:20:31;;;;;;;13.38;7.00;;;;;;;;;;4989353;28;20037;-77
2024/02/29 07:22:59;;;;;;;11.63;6.97;;;;;;;;;;4983904;28;20027;-77
2024/02/29 07:25:25;;;;;;;12.00;7.05;;;;;;;;;;4989247;28;20072;-77
2024/02/29 07:27:51;;;;;;;15.38;7.85;;;;;;;;;;4983854;28;20045;-76
2024/02/29 07:30:16;;;;;;;16.05;8.25;;;;;;;;;;4973686;28;20026;-77
2024/02/29 07:32:41;;;;;;;13.93;7.50;;;;;;;;;;4974255;28;20030;-77
2024/02/29 07:35:11;;;;;;;12.15;6.57;;;;;;;;;;4987815;28;20018;-77
2024/02/29 07:37:38;;;;;;;13.02;7.22;;;;;;;;;;4981995;28;20469;-77
2024/02/29 07:40:04;;;;;;;12.00;6.88;;;;;;;;;;4968108;28;20081;-77
2024/02/29 07:42:30;;;;;;;12.27;6.47;;;;;;;;;;4987071;28;20074;-77
2024/02/29 07:44:55;;;;;;;12.60;7.03;;;;;;;;;;4989643;28;20045;-77
2024/02/29 07:47:20;;;;;;;12.38;7.25;;;;;;;;;;4983998;28;20083;-77
2024/02/29 07:49:46;;;;;;;12.65;7.18;;;;;;;;;;4990070;28;20404;-77
2024/02/29 07:52:12;;;;;;;14.88;7.72;;;;;;;;;;4971697;28;20038;-77
2024/02/29 07:54:38;;;;;;;15.98;6.63;;;;;;;;;;4972709;28;20081;-77
2024/02/29 07:57:04;;;;;;;11.57;6.50;;;;;;;;;;4986819;28;20030;-81
2024/02/29 07:59:29;;;;;;;15.65;7.47;;;;;;;;;;4984820;28;20029;-81
2024/02/29 08:01:55;;;;;;;13.82;7.18;;;;;;;;;;4988829;28;20030;-81
2024/02/29 08:04:20;;;;;;;15.50;7.35;;;;;;;;;;4990846;28;20033;-81
2024/02/29 08:06:45;;;;;;;16.40;8.20;;;;;;;;;;4987324;28;20022;-81
2024/02/29 08:09:12;;;;;;;11.35;6.97;;;;;;;;;;4990773;28;20072;-81
2024/02/29 08:11:38;;;;;;;13.50;7.25;;;;;;;;;;4992761;28;20033;-81
2024/02/29 08:14:04;;;;;;;12.73;7.40;;;;;;;;;;4985656;28;20022;-81
2024/02/29 08:16:29;;;;;;;13.55;7.68;;;;;;;;;;4975601;28;20045;-81
2024/02/29 08:18:55;;;;;;;13.90;7.15;;;;;;;;;;4964319;28;20480;-81
2024/02/29 08:21:20;;;;;;;13.25;7.18;;;;;;;;;;4971741;28;20511;-81
2024/02/29 08:23:46;;;;;;;15.30;7.22;;;;;;;;;;4986170;28;20063;-81
2024/02/29 08:26:11;;;;;;;14.68;7.95;;;;;;;;;;4972201;28;21023;-81
2024/02/29 08:28:37;;;;;;;13.85;7.20;;;;;;;;;;4990655;28;20030;-81
2024/02/29 08:31:03;;;;;;;16.38;8.40;;;;;;;;;;4973749;28;20387;-82
2024/02/29 08:33:29;;;;;;;13.95;7.38;;;;;;;;;;4988601;28;20053;-89
2024/02/29 08:35:54;;;;;;;14.05;8.38;;;;;;;;;;4988423;28;20240;-81
2024/02/29 08:38:19;;;;;;;13.75;7.63;;;;;;;;;;4986914;28;20477;-81
2024/02/29 08:40:45;;;;;;;13.68;7.65;;;;;;;;;;4984300;28;20061;-81
2024/02/29 08:43:10;;;;;;;14.15;7.88;;;;;;;;;;4966629;28;20477;-81
2024/02/29 08:45:35;;;;;;;13.18;7.57;;;;;;;;;;4977271;28;20495;-81
2024/02/29 08:48:01;;;;;;;13.25;7.57;;;;;;;;;;4983398;28;20023;-81
2024/02/29 08:50:26;;;;;;;14.75;7.80;;;;;;;;;;4988262;28;20019;-81
2024/02/29 08:52:51;;;;;;;14.70;7.38;;;;;;;;;;4966253;28;20403;-82
2024/02/29 08:55:17;;;;;;;17.27;7.97;;;;;;;;;;4992627;28;20464;-81
2024/02/29 08:57:42;;;;;;;14.63;7.57;;;;;;;;;;4992345;28;20077;-81
2024/02/29 09:00:08;;;;;;;17.40;8.38;;;;;;;;;;4991579;28;20041;-81
2024/02/29 09:02:34;;;;;;;15.07;7.82;;;;;;;;;;4987665;28;20114;-81
2024/02/29 09:04:59;;;;;;;14.07;7.90;;;;;;;;;;4992727;28;20113;-81
2024/02/29 09:07:24;;;;;;;14.10;7.45;;;;;;;;;;4993211;28;20396;-81
2024/02/29 09:09:51;;;;;;;13.07;7.13;;;;;;;;;;4987541;28;20117;-81
2024/02/29 09:12:17;;;;;;;15.20;7.40;;;;;;;;;;4975555;28;20493;-81
2024/02/29 09:14:43;;;;;;;13.68;7.22;;;;;;;;;;4967256;28;20629;-81
2024/02/29 09:17:09;;;;;;;16.90;8.02;;;;;;;;;;4991883;28;20030;-81
2024/02/29 09:19:34;;;;;;;13.55;6.95;;;;;;;;;;4990893;28;20057;-81
2024/02/29 09:22:00;;;;;;;12.93;7.30;;;;;;;;;;4966548;28;20475;-81
2024/02/29 09:24:25;;;;;;;15.80;7.20;;;;;;;;;;4982352;28;20433;-81
2024/02/29 09:26:50;;;;;;;13.57;6.97;;;;;;;;;;4985665;28;20440;-80
2024/02/29 09:29:16;;;;;;;13.07;7.03;;;;;;;;;;4976236;28;20071;-83
2024/02/29 09:31:42;;;;;;;16.17;7.15;;;;;;;;;;4966085;28;20022;-83
2024/02/29 09:34:07;;;;;;;13.82;7.20;;;;;;;;;;4988077;28;20073;-81
2024/02/29 09:36:33;;;;;;;13.90;7.03;;;;;;;;;;4969825;28;20556;-82
2024/02/29 09:38:58;;;;;;;11.77;7.00;;;;;;;;;;4986699;28;20420;-83
2024/02/29 09:41:24;;;;;;;13.50;6.80;;;;;;;;;;4987172;28;20492;-80
2024/02/29 09:43:50;;;;;;;15.65;7.53;;;;;;;;;;4985446;28;20525;-81
2024/02/29 09:46:15;;;;;;;14.57;7.28;;;;;;;;;;4984649;28;20061;-81
2024/02/29 09:48:41;;;;;;;13.30;7.25;;;;;;;;;;4985891;28;20026;-83
2024/02/29 09:51:11;;;;;;;13.02;7.07;;;;;;;;;;4987003;28;20057;-82
2024/02/29 09:53:37;;;;;;;12.48;6.63;;;;;;;;;;4969784;28;20033;-82
2024/02/29 09:56:04;;;;;;;11.45;6.25;;;;;;;;;;4982285;28;20041;-81
2024/02/29 09:58:31;;;;;;;12.02;6.82;;;;;;;;;;4984189;28;20731;-81
2024/02/29 10:00:57;;;;;;;12.48;6.40;;;;;;;;;;4974885;28;20476;-82
2024/02/29 10:03:23;;;;;;;10.77;6.20;;;;;;;;;;4985413;28;20373;-82
2024/02/29 10:05:49;;;;;;;12.05;6.63;;;;;;;;;;4961720;28;20033;-82
2024/02/29 10:08:15;;;;;;;11.93;6.18;;;;;;;;;;4985267;28;20027;-83
2024/02/29 10:10:40;;;;;;;10.70;6.05;;;;;;;;;;4994455;28;20105;-81
2024/02/29 10:13:06;;;;;;;10.73;5.97;;;;;;;;;;4993869;28;20076;-81
2024/02/29 10:15:34;;;;;;;10.32;5.53;;;;;;;;;;4977219;28;20035;-79
2024/02/29 10:18:01;;;;;;;10.98;6.07;;;;;;;;;;4995082;28;20030;-76
2024/02/29 10:20:27;;;;;;;10.75;6.18;;;;;;;;;;4992091;28;20044;-76
2024/02/29 10:22:52;;;;;;;11.50;6.43;;;;;;;;;;4993217;28;20026;-76
2024/02/29 10:25:19;;;;;;;11.48;6.30;;;;;;;;;;4976419;28;20080;-77
2024/02/29 10:27:44;;;;;;;10.18;5.85;;;;;;;;;;4977390;28;20048;-76
2024/02/29 10:30:14;;;;;;;12.45;6.00;;;;;;;;;;4993770;28;20543;-76
2024/02/29 10:32:44;;;;;;;11.18;5.70;;;;;;;;;;4994389;28;20030;-78
2024/02/29 10:35:21;;;;;;;9.73;5.47;;;;;;;;;;4993889;28;20026;-76
2024/02/29 10:37:49;;;;;;;10.27;5.90;;;;;;;;;;4993911;28;20048;-78
2024/02/29 10:40:14;;;;;;;11.13;5.90;;;;;;;;;;4972715;28;20027;-77
2024/02/29 10:42:41;;;;;;;8.80;5.45;;;;;;;;;;4977019;28;20397;-76
2024/02/29 10:45:16;;;;;;;10.48;5.80;;;;;;;;;;4972861;28;20019;-76
2024/02/29 10:48:02;;;;;;;9.82;5.70;;;;;;;;;;4969840;28;20030;-76
2024/02/29 10:50:31;;;;;;;9.63;5.80;;;;;;;;;;4963832;28;20046;-76
2024/02/29 10:53:35;;;;;;;10.80;6.20;;;;;;;;;;4986028;28;20029;-78
2024/02/29 10:56:08;;;;;;;10.80;5.82;;;;;;;;;;4967570;28;20034;-78
2024/02/29 10:58:44;;;;;;;10.88;5.50;;;;;;;;;;4993003;28;20033;-78
2024/02/29 11:01:10;;;;;;;11.27;5.35;;;;;;;;;;4990449;28;20065;-78
2024/02/29 11:03:40;;;;;;;10.32;5.32;;;;;;;;;;4975672;28;20041;-78
2024/02/29 11:06:07;;;;;;;10.55;5.53;;;;;;;;;;4992846;28;20031;-78
2024/02/29 11:08:33;;;;;;;9.93;5.93;;;;;;;;;;4993147;28;20019;-78
2024/02/29 11:11:00;;;;;;;11.68;6.05;;;;;;;;;;4976894;28;20495;-78
2024/02/29 11:13:29;;;;;;;11.40;6.13;;;;;;;;;;4992554;28;20030;-78
2024/02/29 11:15:57;;;;;;;10.55;5.60;;;;;;;;;;4993857;28;20035;-78
2024/02/29 11:18:24;;;;;;;13.57;6.00;;;;;;;;;;4993240;28;20057;-78
2024/02/29 11:21:05;;;;;;;12.55;6.68;;;;;;;;;;4990392;28;20560;-79
2024/02/29 11:23:40;;;;;;;11.50;6.13;;;;;;;;;;4990084;28;20018;-79
2024/02/29 11:26:13;;;;;;;13.02;5.65;;;;;;;;;;4986984;28;20561;-82
2024/02/29 11:28:40;;;;;;;9.77;5.90;;;;;;;;;;4988652;28;20026;-82
2024/02/29 11:31:16;;;;;;;9.77;5.70;;;;;;;;;;4990663;28;20638;-81
2024/02/29 11:33:42;;;;;;;11.95;5.90;;;;;;;;;;4992970;28;20038;-82
2024/02/29 11:36:11;;;;;;;10.05;5.82;;;;;;;;;;4993496;28;20031;-82
2024/02/29 11:38:36;;;;;;;10.32;5.90;;;;;;;;;;4992890;28;20038;-81
2024/02/29 11:41:02;;;;;;;10.68;5.60;;;;;;;;;;4992302;28;20037;-82
2024/02/29 11:43:28;;;;;;;11.75;6.15;;;;;;;;;;4992851;28;20030;-81
2024/02/29 11:45:53;;;;;;;11.90;6.25;;;;;;;;;;4990689;28;20103;-81
2024/02/29 11:48:19;;;;;;;9.95;5.80;;;;;;;;;;4974084;28;20048;-81
2024/02/29 11:50:45;;;;;;;10.07;6.03;;;;;;;;;;4993373;28;20037;-81
2024/02/29 11:53:10;;;;;;;9.82;5.60;;;;;;;;;;4990745;28;20480;-81
2024/02/29 11:55:36;;;;;;;10.48;5.65;;;;;;;;;;4993713;28;20117;-81
2024/02/29 11:58:01;;;;;;;10.23;5.72;;;;;;;;;;4991050;28;20041;-82
2024/02/29 12:00:28;;;;;;;12.32;6.43;;;;;;;;;;4975123;28;20034;-81
2024/02/29 12:02:53;;;;;;;11.75;5.53;;;;;;;;;;4993326;28;20033;-81
2024/02/29 12:05:19;;;;;;;10.00;5.93;;;;;;;;;;4975355;28;20018;-81
2024/02/29 12:07:45;;;;;;;10.40;5.43;;;;;;;;;;4992272;28;20026;-81
2024/02/29 12:10:11;;;;;;;9.18;5.65;;;;;;;;;;4975635;28;20026;-81
2024/02/29 12:12:37;;;;;;;9.07;5.65;;;;;;;;;;4992457;28;20053;-81
2024/02/29 12:15:04;;;;;;;10.77;6.00;;;;;;;;;;4993192;28;20469;-81
2024/02/29 12:17:32;;;;;;;10.27;5.78;;;;;;;;;;4991356;28;20038;-82
2024/02/29 12:19:59;;;;;;;11.27;5.70;;;;;;;;;;4991577;28;20034;-82
2024/02/29 12:22:25;;;;;;;8.18;5.22;;;;;;;;;;4989619;28;20038;-81
2024/02/29 12:24:51;;;;;;;10.45;5.68;;;;;;;;;;4990976;28;20049;-81
2024/02/29 12:27:17;;;;;;;10.35;5.72;;;;;;;;;;4991658;28;20030;-81
2024/02/29 12:29:43;;;;;;;9.20;5.63;;;;;;;;;;4992998;28;20101;-81
2024/02/29 12:32:09;;;;;;;10.48;5.00;;;;;;;;;;4991578;28;20014;-82
2024/02/29 12:34:36;;;;;;;9.48;5.47;;;;;;;;;;4990699;28;20030;-81
2024/02/29 12:37:02;;;;;;;9.57;5.30;;;;;;;;;;4992539;28;20014;-78
2024/02/29 12:39:27;;;;;;;9.13;5.22;;;;;;;;;;4972178;28;20113;-78
2024/02/29 12:41:53;;;;;;;9.95;5.32;;;;;;;;;;4992587;28;20030;-78
2024/02/29 12:44:20;;;;;;;9.90;5.60;;;;;;;;;;4988912;28;20041;-78
2024/02/29 12:46:51;;;;;;;10.18;6.20;;;;;;;;;;4991372;28;20546;-78
2024/02/29 12:49:16;;;;;;;9.10;5.47;;;;;;;;;;4992620;28;20026;-78
2024/02/29 12:51:42;;;;;;;12.68;5.57;;;;;;;;;;4992632;28;20030;-78
2024/02/29 12:54:07;;;;;;;13.93;5.85;;;;;;;;;;4975021;28;20030;-78
2024/02/29 12:56:36;;;;;;;12.13;6.13;;;;;;;;;;4995926;28;20031;-78
2024/02/29 12:59:02;;;;;;;9.80;6.03;;;;;;;;;;4996853;28;20058;-78
2024/02/29 13:01:28;;;;;;;10.32;5.97;;;;;;;;;;4996305;28;20052;-78
2024/02/29 13:03:54;;;;;;;9.18;5.15;;;;;;;;;;4993760;28;20030;-78
2024/02/29 13:06:20;;;;;;;11.05;5.82;;;;;;;;;;4978992;28;20076;-78
2024/02/29 13:08:45;;;;;;;9.50;5.47;;;;;;;;;;4977356;28;20485;-78
2024/02/29 13:11:10;;;;;;;10.95;5.22;;;;;;;;;;4994786;28;20098;-78
2024/02/29 13:13:37;;;;;;;7.82;5.07;;;;;;;;;;4994999;28;20472;-77
2024/02/29 13:16:03;;;;;;;9.07;4.60;;;;;;;;;;4996264;28;20481;-78
2024/02/29 13:18:29;;;;;;;10.30;5.45;;;;;;;;;;4996234;28;20388;-78
2024/02/29 13:20:55;;;;;;;8.70;5.15;;;;;;;;;;4994509;28;20022;-78
2024/02/29 13:23:21;;;;;;;9.75;5.43;;;;;;;;;;4995012;28;20091;-78
2024/02/29 13:25:46;;;;;;;8.45;4.88;;;;;;;;;;4994761;28;20422;-77
2024/02/29 13:28:13;;;;;;;10.40;5.32;;;;;;;;;;4976622;28;20485;-78
2024/02/29 13:30:38;;;;;;;8.68;5.40;;;;;;;;;;4996226;28;20050;-78
2024/02/29 13:33:04;;;;;;;10.38;6.35;;;;;;;;;;4994154;28;20117;-78
2024/02/29 13:35:29;;;;;;;11.25;6.78;;;;;;;;;;4994637;28;20022;-78
2024/02/29 13:37:55;;;;;;;10.25;6.82;;;;;;;;;;4992285;28;20431;-78
2024/02/29 13:40:20;;;;;;;11.65;6.80;;;;;;;;;;4979494;28;20030;-78
2024/02/29 13:42:47;;;;;;;10.50;6.40;;;;;;;;;;4980433;28;20038;-78
2024/02/29 13:45:12;;;;;;;11.30;6.82;;;;;;;;;;4991206;28;20027;-78
2024/02/29 13:47:50;;;;;;;11.02;6.50;;;;;;;;;;4994214;28;20383;-81
2024/02/29 13:50:16;;;;;;;11.55;6.65;;;;;;;;;;4993978;28;20100;-80
2024/02/29 13:52:44;;;;;;;10.38;6.35;;;;;;;;;;4993957;28;20484;-81
2024/02/29 13:55:10;;;;;;;12.45;6.57;;;;;;;;;;4988836;28;20026;-81
2024/02/29 13:57:36;;;;;;;10.48;6.38;;;;;;;;;;4991471;28;20109;-78
2024/02/29 14:00:02;;;;;;;12.15;7.47;;;;;;;;;;4994613;28;20030;-78
2024/02/29 14:02:27;;;;;;;9.68;6.40;;;;;;;;;;4975001;28;20070;-78
2024/02/29 14:04:53;;;;;;;11.18;6.78;;;;;;;;;;4993768;28;20038;-78
2024/02/29 14:07:18;;;;;;;9.73;6.15;;;;;;;;;;4994574;28;20037;-77
2024/02/29 14:09:43;;;;;;;9.57;5.82;;;;;;;;;;4994620;28;20109;-77
2024/02/29 14:12:09;;;;;;;9.38;6.18;;;;;;;;;;4993964;28;20022;-77
2024/02/29 14:14:34;;;;;;;8.90;6.00;;;;;;;;;;4993856;28;20114;-77
2024/02/29 14:17:00;;;;;;;10.27;5.75;;;;;;;;;;4995323;28;20038;-77
2024/02/29 14:19:26;;;;;;;10.05;5.80;;;;;;;;;;4992782;28;20031;-78
2024/02/29 14:21:51;;;;;;;11.20;6.07;;;;;;;;;;4988048;28;20034;-77
2024/02/29 14:24:16;;;;;;;14.07;6.80;;;;;;;;;;4992680;28;20022;-77